createdAt,value
2023-05-09T00:01:43.815Z,37.00
2023-05-09T00:04:11.265Z,33.23
2023-05-09T00:06:38.419Z,31.77
2023-05-09T00:09:05.556Z,33.67
2023-05-09T00:11:32.682Z,30.77
2023-05-09T00:13:59.796Z,34.43
2023-05-09T00:16:26.970Z,31.93
2023-05-09T00:18:54.121Z,31.00
2023-05-09T00:21:21.250Z,28.10
2023-05-09T00:23:48.428Z,33.23
2023-05-09T00:26:16.292Z,29.13
2023-05-09T00:28:43.438Z,34.77
2023-05-09T00:31:10.634Z,36.63
2023-05-09T00:33:37.762Z,36.30
2023-05-09T00:36:05.071Z,40.30
2023-05-09T00:38:32.259Z,35.57
2023-05-09T00:40:59.393Z,33.03
2023-05-09T00:43:26.580Z,30.37
2023-05-09T00:45:53.738Z,32.93
2023-05-09T00:48:20.907Z,31.53
2023-05-09T00:50:52.723Z,29.57
2023-05-09T00:53:20.783Z,27.33
2023-05-09T00:55:47.962Z,28.70
2023-05-09T00:58:15.119Z,29.97
2023-05-09T01:00:43.436Z,34.63
2023-05-09T01:03:10.673Z,31.23
2023-05-09T01:05:51.781Z,32.07
2023-05-09T01:08:24.305Z,30.13
2023-05-09T01:10:57.591Z,32.23
2023-05-09T01:13:39.119Z,34.17
2023-05-09T01:16:12.178Z,31.07
2023-05-09T01:18:46.860Z,32.27
2023-05-09T01:21:19.560Z,31.57
2023-05-09T01:23:55.071Z,34.20
2023-05-09T01:26:41.197Z,32.03
2023-05-09T01:29:16.041Z,30.73
2023-05-09T01:31:43.252Z,32.67
2023-05-09T01:34:10.726Z,29.47
2023-05-09T01:36:38.136Z,31.57
2023-05-09T01:39:05.345Z,28.27
2023-05-09T01:41:32.564Z,29.47
2023-05-09T01:43:59.945Z,35.67
2023-05-09T01:46:27.171Z,45.70
2023-05-09T01:48:54.339Z,57.40
2023-05-09T01:51:21.521Z,58.77
2023-05-09T01:53:49.012Z,58.90
2023-05-09T01:56:16.165Z,57.87
2023-05-09T01:58:43.326Z,64.47
2023-05-09T02:01:10.576Z,57.77
2023-05-09T02:03:37.986Z,60.60
2023-05-09T02:06:05.145Z,65.37
2023-05-09T02:08:32.842Z,67.10
2023-05-09T02:10:59.992Z,56.57
2023-05-09T02:13:27.193Z,55.73
2023-05-09T02:15:54.425Z,65.17
2023-05-09T02:18:21.866Z,71.13
2023-05-09T02:20:49.030Z,57.40
2023-05-09T02:23:16.308Z,58.23
2023-05-09T02:25:43.412Z,67.97
2023-05-09T02:28:10.585Z,53.33
2023-05-09T02:30:39.715Z,57.30
2023-05-09T02:33:07.138Z,56.30
2023-05-09T02:35:34.338Z,51.50
2023-05-09T02:38:01.587Z,55.10
2023-05-09T02:40:28.857Z,52.17
2023-05-09T02:42:56.209Z,58.07
2023-05-09T02:45:23.481Z,50.97
2023-05-09T02:47:50.770Z,62.73
2023-05-09T02:50:17.950Z,56.43
2023-05-09T02:52:45.143Z,47.83
2023-05-09T02:55:12.448Z,45.27
2023-05-09T02:57:39.853Z,53.97
2023-05-09T03:00:10.181Z,51.13
2023-05-09T03:02:37.799Z,68.67
2023-05-09T03:05:05.729Z,64.47
2023-05-09T03:07:32.880Z,66.77
2023-05-09T03:09:59.997Z,69.53
2023-05-09T03:12:27.104Z,75.47
2023-05-09T03:14:54.244Z,80.03
2023-05-09T03:17:21.531Z,78.73
2023-05-09T03:19:48.863Z,79.23
2023-05-09T03:22:16.177Z,81.73
2023-05-09T03:24:43.702Z,76.97
2023-05-09T03:27:10.887Z,75.47
2023-05-09T03:29:38.074Z,72.47
2023-05-09T03:32:05.364Z,74.23
2023-05-09T03:34:32.522Z,75.33
2023-05-09T03:36:59.693Z,83.07
2023-05-09T03:39:26.826Z,75.77
2023-05-09T03:41:54.136Z,76.00
2023-05-09T03:44:23.265Z,74.07
2023-05-09T03:46:50.608Z,77.27
2023-05-09T03:49:17.793Z,71.23
2023-05-09T03:51:44.932Z,65.00
2023-05-09T03:54:12.263Z,68.63
2023-05-09T03:56:39.406Z,64.83
2023-05-09T03:59:06.543Z,62.33
2023-05-09T04:01:33.960Z,66.07
2023-05-09T04:04:01.204Z,65.37
2023-05-09T04:06:30.097Z,72.30
2023-05-09T04:08:57.242Z,62.00
2023-05-09T04:11:24.426Z,62.67
2023-05-09T04:13:51.566Z,62.20
2023-05-09T04:16:18.724Z,60.67
2023-05-09T04:18:45.956Z,68.13
2023-05-09T04:21:13.159Z,63.80
2023-05-09T04:23:40.338Z,59.23
2023-05-09T04:26:09.635Z,60.93
2023-05-09T04:28:36.772Z,60.90
2023-05-09T04:31:04.017Z,63.43
2023-05-09T04:33:31.236Z,55.50
2023-05-09T04:35:58.694Z,54.70
2023-05-09T04:38:25.892Z,57.77
2023-05-09T04:40:53.096Z,172.00
2023-05-09T04:43:20.319Z,131.13
2023-05-09T04:45:47.899Z,49.87
2023-05-09T04:48:15.032Z,55.50
2023-05-09T04:50:42.220Z,52.37
2023-05-09T04:53:09.412Z,48.67
2023-05-09T04:55:36.630Z,49.43
2023-05-09T04:58:03.841Z,54.10
2023-05-09T05:00:31.011Z,46.87
2023-05-09T05:02:58.213Z,41.87
2023-05-09T05:05:25.877Z,44.60
2023-05-09T05:07:54.162Z,65.03
2023-05-09T05:10:21.351Z,47.90
2023-05-09T05:12:48.586Z,43.30
2023-05-09T05:15:16.065Z,43.63
2023-05-09T05:17:43.463Z,45.87
2023-05-09T05:20:10.743Z,39.93
2023-05-09T05:22:37.996Z,38.87
2023-05-09T05:25:05.444Z,38.30
2023-05-09T05:27:32.627Z,40.10
2023-05-09T05:29:59.830Z,34.83
2023-05-09T05:32:27.009Z,40.47
2023-05-09T05:34:54.165Z,35.20
2023-05-09T05:37:21.341Z,35.03
2023-05-09T05:39:48.969Z,34.10
2023-05-09T05:42:16.191Z,32.37
2023-05-09T05:44:43.309Z,35.27
2023-05-09T05:47:10.480Z,29.13
2023-05-09T05:49:37.673Z,29.83
2023-05-09T05:52:04.880Z,25.83
2023-05-09T05:54:32.045Z,20.23
2023-05-09T05:56:59.253Z,18.80
2023-05-09T05:59:26.406Z,17.50
2023-05-09T06:01:53.551Z,15.07
2023-05-09T06:04:20.815Z,13.65
2023-05-09T06:06:47.957Z,12.68
2023-05-09T06:09:15.081Z,12.77
2023-05-09T06:11:42.256Z,12.18
2023-05-09T06:14:09.378Z,12.00
2023-05-09T06:16:36.531Z,9.35
2023-05-09T06:19:03.788Z,11.82
2023-05-09T06:21:31.134Z,8.82
2023-05-09T06:24:09.803Z,11.25
2023-05-09T06:26:41.530Z,10.88
2023-05-09T06:29:08.679Z,10.40
2023-05-09T06:31:38.527Z,7.93
2023-05-09T06:34:06.171Z,8.00
2023-05-09T06:36:33.624Z,6.57
2023-05-09T06:39:00.856Z,7.82
2023-05-09T06:41:28.059Z,5.25
2023-05-09T06:43:55.289Z,5.70
2023-05-09T06:46:22.529Z,4.75
2023-05-09T06:48:49.780Z,11.23
2023-05-09T06:51:16.963Z,3.97
2023-05-09T06:53:44.099Z,4.90
2023-05-09T06:56:11.255Z,3.45
2023-05-09T06:58:38.436Z,3.58
2023-05-09T07:01:05.676Z,3.65
2023-05-09T07:03:33.154Z,3.50
2023-05-09T07:06:00.277Z,3.95
2023-05-09T07:08:27.406Z,3.45
2023-05-09T07:10:54.556Z,3.00
2023-05-09T07:13:21.744Z,3.20
2023-05-09T07:15:49.015Z,3.03
2023-05-09T07:18:16.179Z,3.33
2023-05-09T07:20:43.402Z,3.28
2023-05-09T07:23:10.632Z,3.97
2023-05-09T07:25:37.775Z,3.20
2023-05-09T07:28:04.997Z,3.00
2023-05-09T07:30:32.179Z,3.10
2023-05-09T07:32:59.419Z,3.45
2023-05-09T07:35:27.767Z,3.05
2023-05-09T07:37:54.925Z,2.75
2023-05-09T07:40:22.071Z,2.65
2023-05-09T07:42:50.079Z,4.50
2023-05-09T07:45:19.417Z,2.60
2023-05-09T07:47:47.797Z,2.65
2023-05-09T07:50:14.987Z,3.00
2023-05-09T07:52:42.149Z,2.65
2023-05-09T07:55:09.787Z,3.13
2023-05-09T07:57:36.971Z,4.75
2023-05-09T08:00:06.287Z,3.13
2023-05-09T08:02:33.523Z,2.50
2023-05-09T08:05:00.818Z,2.50
2023-05-09T08:07:27.949Z,2.47
2023-05-09T08:09:55.121Z,2.60
2023-05-09T08:12:22.306Z,7.45
2023-05-09T08:14:49.549Z,2.40
2023-05-09T08:17:16.953Z,4.97
2023-05-09T08:19:44.076Z,8.20
2023-05-09T08:22:16.954Z,4.50
2023-05-09T08:24:44.144Z,2.17
2023-05-09T08:27:13.384Z,2.00
2023-05-09T08:29:40.876Z,3.97
2023-05-09T08:32:08.189Z,6.50
2023-05-09T08:34:35.416Z,2.53
2023-05-09T08:37:02.790Z,2.70
2023-05-09T08:39:29.967Z,1.98
2023-05-09T08:42:00.131Z,2.20
2023-05-09T08:44:27.967Z,2.28
2023-05-09T08:46:59.895Z,4.75
2023-05-09T08:49:27.970Z,2.05
2023-05-09T08:51:55.634Z,2.15
2023-05-09T08:54:23.185Z,2.20
2023-05-09T08:56:51.015Z,3.45
2023-05-09T08:59:18.770Z,3.95
2023-05-09T09:01:46.009Z,3.75
2023-05-09T09:04:13.321Z,2.85
2023-05-09T09:06:40.780Z,1.80
2023-05-09T09:09:11.457Z,2.70
2023-05-09T09:11:38.961Z,4.82
2023-05-09T09:14:07.538Z,2.08
2023-05-09T09:16:34.901Z,7.72
2023-05-09T09:19:02.025Z,1.45
2023-05-09T09:21:29.135Z,1.55
2023-05-09T09:23:56.851Z,2.33
2023-05-09T09:26:24.776Z,1.77
2023-05-09T09:28:51.972Z,3.15
2023-05-09T09:31:22.765Z,1.40
2023-05-09T09:33:50.030Z,1.65
2023-05-09T09:36:17.176Z,1.40
2023-05-09T09:38:44.710Z,2.28
2023-05-09T09:41:12.431Z,1.92
2023-05-09T09:43:39.626Z,2.35
2023-05-09T09:46:06.916Z,1.90
2023-05-09T09:48:34.803Z,1.80
2023-05-09T09:51:11.731Z,1.70
2023-05-09T09:53:42.296Z,1.58
2023-05-09T09:56:09.570Z,2.35
2023-05-09T09:58:36.794Z,1.60
2023-05-09T10:01:09.841Z,2.05
2023-05-09T10:03:37.759Z,1.95
2023-05-09T10:06:05.425Z,1.60
2023-05-09T10:08:32.669Z,1.92
2023-05-09T10:11:00.109Z,1.45
2023-05-09T10:13:27.265Z,2.78
2023-05-09T10:15:55.653Z,1.45
2023-05-09T10:18:25.311Z,2.22
2023-05-09T10:20:52.694Z,1.50
2023-05-09T10:23:19.869Z,2.05
2023-05-09T10:25:53.630Z,1.63
2023-05-09T10:28:22.692Z,1.60
2023-05-09T10:31:08.042Z,1.73
2023-05-09T10:33:38.886Z,1.80
2023-05-09T10:36:06.112Z,1.52
2023-05-09T10:38:33.270Z,1.75
2023-05-09T10:41:00.372Z,1.70
2023-05-09T10:43:27.565Z,1.60
2023-05-09T10:45:54.704Z,2.38
2023-05-09T10:48:22.679Z,3.35
2023-05-09T10:50:50.116Z,1.50
2023-05-09T10:53:17.938Z,1.70
2023-05-09T10:55:48.099Z,1.80
2023-05-09T10:58:21.871Z,1.45
2023-05-09T11:00:49.496Z,1.73
2023-05-09T11:03:19.201Z,2.17
2023-05-09T11:05:50.554Z,2.17
2023-05-09T11:08:21.469Z,1.80
2023-05-09T11:10:48.752Z,1.60
2023-05-09T11:13:19.283Z,1.50
2023-05-09T11:16:01.815Z,1.60
2023-05-09T11:18:35.395Z,1.70
2023-05-09T11:21:08.541Z,1.92
2023-05-09T11:23:35.779Z,1.80
2023-05-09T11:26:09.392Z,1.60
2023-05-09T11:28:37.690Z,2.78
2023-05-09T11:31:14.506Z,1.50
2023-05-09T11:33:42.233Z,2.70
2023-05-09T11:36:19.531Z,1.60
2023-05-09T11:38:49.450Z,1.50
2023-05-09T11:41:16.690Z,1.92
2023-05-09T11:43:44.939Z,1.98
2023-05-09T11:46:12.948Z,1.60
2023-05-09T11:48:40.409Z,1.52
2023-05-09T11:51:07.584Z,3.33
2023-05-09T11:53:34.844Z,3.88
2023-05-09T11:56:05.742Z,1.75
2023-05-09T11:58:32.869Z,2.40
2023-05-09T12:01:00.133Z,1.63
2023-05-09T12:03:27.427Z,2.20
2023-05-09T12:05:55.584Z,1.48
2023-05-09T12:08:23.118Z,1.75
2023-05-09T12:10:50.257Z,2.33
2023-05-09T12:13:18.185Z,2.30
2023-05-09T12:15:45.562Z,2.45
2023-05-09T12:18:12.774Z,1.85
2023-05-09T12:20:42.782Z,1.20
2023-05-09T12:23:11.552Z,1.40
2023-05-09T12:25:38.751Z,2.13
2023-05-09T12:28:06.189Z,1.35
2023-05-09T12:30:33.377Z,1.60
2023-05-09T12:33:00.944Z,2.05
2023-05-09T12:35:28.164Z,1.58
2023-05-09T12:37:56.497Z,1.95
2023-05-09T12:40:23.726Z,1.95
2023-05-09T12:42:53.693Z,1.60
2023-05-09T12:45:21.111Z,2.22
2023-05-09T12:47:51.968Z,1.55
2023-05-09T12:50:19.307Z,1.25
2023-05-09T12:53:02.096Z,1.20
2023-05-09T12:55:31.659Z,1.67
2023-05-09T12:58:02.624Z,2.22
2023-05-09T13:00:29.996Z,2.65
2023-05-09T13:02:57.361Z,2.00
2023-05-09T13:05:24.677Z,1.50
2023-05-09T13:07:52.604Z,1.40
2023-05-09T13:10:23.660Z,1.67
2023-05-09T13:12:51.473Z,1.77
2023-05-09T13:15:22.524Z,6.47
2023-05-09T13:17:53.232Z,2.55
2023-05-09T13:20:20.393Z,2.90
2023-05-09T13:22:47.642Z,1.50
2023-05-09T13:25:16.088Z,1.40
2023-05-09T13:27:43.216Z,1.50
2023-05-09T13:30:10.571Z,3.00
2023-05-09T13:32:37.766Z,3.35
2023-05-09T13:35:07.547Z,2.95
2023-05-09T13:37:35.074Z,1.63
2023-05-09T13:40:02.514Z,3.05
2023-05-09T13:42:29.794Z,1.40
2023-05-09T13:44:56.936Z,1.35
2023-05-09T13:47:24.078Z,1.20
2023-05-09T13:49:52.229Z,1.60
2023-05-09T13:52:19.533Z,1.30
2023-05-09T13:54:47.215Z,1.70
2023-05-09T13:57:14.378Z,2.17
2023-05-09T13:59:41.635Z,1.40
2023-05-09T14:02:08.955Z,1.70
2023-05-09T14:04:36.117Z,2.03
2023-05-09T14:07:03.263Z,1.45
2023-05-09T14:09:30.508Z,1.17
2023-05-09T14:11:57.673Z,1.52
2023-05-09T14:14:25.585Z,1.50
2023-05-09T14:16:53.992Z,1.85
2023-05-09T14:19:21.506Z,2.38
2023-05-09T14:21:48.697Z,1.80
2023-05-09T14:24:16.477Z,1.73
2023-05-09T14:26:43.835Z,1.50
2023-05-09T14:29:11.183Z,1.70
2023-05-09T14:31:38.489Z,1.50
2023-05-09T14:34:06.185Z,1.88
2023-05-09T14:36:33.483Z,1.70
2023-05-09T14:39:00.649Z,2.22
2023-05-09T14:41:27.768Z,2.25
2023-05-09T14:43:54.942Z,1.50
2023-05-09T14:46:24.765Z,2.45
2023-05-09T14:48:52.806Z,1.80
2023-05-09T14:51:20.020Z,2.20
2023-05-09T14:53:47.280Z,1.42
2023-05-09T14:56:14.541Z,1.90
2023-05-09T14:58:41.695Z,1.40
2023-05-09T15:01:08.907Z,2.78
2023-05-09T15:03:36.167Z,1.80
2023-05-09T15:06:03.362Z,1.65
2023-05-09T15:08:30.548Z,1.50
2023-05-09T15:10:57.838Z,1.40
2023-05-09T15:13:25.009Z,2.15
2023-05-09T15:15:52.483Z,3.05
2023-05-09T15:18:21.554Z,1.95
2023-05-09T15:20:48.811Z,1.52
2023-05-09T15:23:15.988Z,2.35
2023-05-09T15:25:43.392Z,2.58
2023-05-09T15:28:10.902Z,1.60
2023-05-09T15:30:41.099Z,1.88
2023-05-09T15:33:08.472Z,1.58
2023-05-09T15:35:35.826Z,1.50
2023-05-09T15:38:03.036Z,1.52
2023-05-09T15:40:30.212Z,1.67
2023-05-09T15:42:58.398Z,1.65
2023-05-09T15:45:25.678Z,1.67
2023-05-09T15:47:53.880Z,3.35
2023-05-09T15:50:21.317Z,2.22
2023-05-09T15:52:48.638Z,1.50
2023-05-09T15:55:15.783Z,1.60
2023-05-09T15:57:45.120Z,3.05
2023-05-09T16:00:12.687Z,1.55
2023-05-09T16:02:40.813Z,1.92
2023-05-09T16:05:08.144Z,2.45
2023-05-09T16:07:35.889Z,1.60
2023-05-09T16:10:03.322Z,9.18
2023-05-09T16:12:32.812Z,3.63
2023-05-09T16:15:00.253Z,2.28
2023-05-09T16:17:27.441Z,2.13
2023-05-09T16:19:55.536Z,1.73
2023-05-09T16:22:22.734Z,1.60
2023-05-09T16:24:49.924Z,2.25
2023-05-09T16:27:17.329Z,4.18
2023-05-09T16:29:44.485Z,1.95
2023-05-09T16:32:11.704Z,2.38
2023-05-09T16:34:38.967Z,3.30
2023-05-09T16:37:06.243Z,3.40
2023-05-09T16:39:33.424Z,1.83
2023-05-09T16:42:00.711Z,3.17
2023-05-09T16:44:28.327Z,4.32
2023-05-09T16:46:55.616Z,3.75
2023-05-09T16:49:22.788Z,2.63
2023-05-09T16:51:50.480Z,1.92
2023-05-09T16:54:17.628Z,3.10
2023-05-09T16:56:44.789Z,4.10
2023-05-09T16:59:11.978Z,5.72
2023-05-09T17:01:39.433Z,2.50
2023-05-09T17:04:06.891Z,2.10
2023-05-09T17:06:34.347Z,1.90
2023-05-09T17:09:01.697Z,2.70
2023-05-09T17:11:29.092Z,2.20
2023-05-09T17:13:56.359Z,2.42
2023-05-09T17:16:23.587Z,2.03
2023-05-09T17:18:52.039Z,3.90
2023-05-09T17:21:20.305Z,2.15
2023-05-09T17:23:47.489Z,3.03
2023-05-09T17:26:14.683Z,1.77
2023-05-09T17:28:41.856Z,2.72
2023-05-09T17:31:09.035Z,2.95
2023-05-09T17:33:36.255Z,2.95
2023-05-09T17:36:03.805Z,2.13
2023-05-09T17:38:30.955Z,2.65
2023-05-09T17:40:58.383Z,2.30
2023-05-09T17:43:27.750Z,2.25
2023-05-09T17:45:55.175Z,2.58
2023-05-09T17:48:22.513Z,2.85
2023-05-09T17:50:49.931Z,3.53
2023-05-09T17:53:17.216Z,2.65
2023-05-09T17:55:44.667Z,2.95
2023-05-09T17:58:11.880Z,7.47
2023-05-09T18:00:39.020Z,9.40
2023-05-09T18:03:06.283Z,8.05
2023-05-09T18:05:33.614Z,6.28
2023-05-09T18:08:01.341Z,26.27
2023-05-09T18:10:29.044Z,13.95
2023-05-09T18:12:56.309Z,15.07
2023-05-09T18:15:23.488Z,9.35
2023-05-09T18:17:50.693Z,7.00
2023-05-09T18:20:18.123Z,11.27
2023-05-09T18:22:45.455Z,8.57
2023-05-09T18:25:12.632Z,25.67
2023-05-09T18:27:39.989Z,25.77
2023-05-09T18:30:07.525Z,32.00
2023-05-09T18:32:34.674Z,30.83
2023-05-09T18:35:01.883Z,31.30
2023-05-09T18:37:29.064Z,33.75
2023-05-09T18:39:56.571Z,36.15
2023-05-09T18:42:23.760Z,41.47
2023-05-09T18:44:51.151Z,36.42
2023-05-09T18:47:18.552Z,33.10
2023-05-09T18:49:46.238Z,30.42
2023-05-09T18:52:13.821Z,31.75
2023-05-09T18:54:41.187Z,23.52
2023-05-09T18:57:08.591Z,37.50
2023-05-09T18:59:35.861Z,51.33
2023-05-09T19:02:03.015Z,41.05
2023-05-09T19:04:30.564Z,51.03
2023-05-09T19:06:59.421Z,49.95
2023-05-09T19:09:26.779Z,52.35
2023-05-09T19:11:54.088Z,48.00
2023-05-09T19:14:21.257Z,58.70
2023-05-09T19:16:48.540Z,74.05
2023-05-09T19:19:15.875Z,72.50
2023-05-09T19:21:43.580Z,68.65
2023-05-09T19:24:10.747Z,62.28
2023-05-09T19:26:37.913Z,69.07
2023-05-09T19:29:08.063Z,64.40
2023-05-09T19:31:37.034Z,65.75
2023-05-09T19:34:04.229Z,79.68
2023-05-09T19:36:31.411Z,74.97
2023-05-09T19:38:58.557Z,72.03
2023-05-09T19:41:26.000Z,64.93
2023-05-09T19:43:53.159Z,65.07
2023-05-09T19:46:20.361Z,60.47
2023-05-09T19:48:47.512Z,63.15
2023-05-09T19:51:15.473Z,58.13
2023-05-09T19:53:42.597Z,64.75
2023-05-09T19:56:09.948Z,139.98
2023-05-09T19:58:37.138Z,96.63
2023-05-09T20:01:07.418Z,80.03
2023-05-09T20:03:38.649Z,67.35
2023-05-09T20:06:06.056Z,43.88
2023-05-09T20:08:33.850Z,62.78
2023-05-09T20:11:01.026Z,46.05
2023-05-09T20:13:28.244Z,59.35
2023-05-09T20:15:55.503Z,56.80
2023-05-09T20:18:22.729Z,71.97
2023-05-09T20:20:50.037Z,75.53
2023-05-09T20:23:17.168Z,56.53
2023-05-09T20:25:44.360Z,32.10
2023-05-09T20:28:12.365Z,32.72
2023-05-09T20:30:39.567Z,38.97
2023-05-09T20:33:06.765Z,34.95
2023-05-09T20:35:33.916Z,44.17
2023-05-09T20:38:01.243Z,44.58
2023-05-09T20:40:28.629Z,36.40
2023-05-09T20:42:55.704Z,37.60
2023-05-09T20:45:22.888Z,36.05
2023-05-09T20:47:50.098Z,36.70
2023-05-09T20:50:17.696Z,26.77
2023-05-09T20:52:45.050Z,32.63
2023-05-09T20:55:12.217Z,32.70
2023-05-09T20:57:39.312Z,31.08
2023-05-09T21:00:07.580Z,35.65
2023-05-09T21:02:35.192Z,47.30
2023-05-09T21:05:02.416Z,36.37
2023-05-09T21:07:29.540Z,37.17
2023-05-09T21:09:57.107Z,39.53
2023-05-09T21:12:24.257Z,38.53
2023-05-09T21:14:51.427Z,35.63
2023-05-09T21:17:18.747Z,33.73
2023-05-09T21:19:45.927Z,39.53
2023-05-09T21:22:13.054Z,31.63
2023-05-09T21:24:40.215Z,35.47
2023-05-09T21:27:07.387Z,38.58
2023-05-09T21:29:34.501Z,42.00
2023-05-09T21:32:01.688Z,42.17
2023-05-09T21:34:28.872Z,38.93
2023-05-09T21:36:56.042Z,40.80
2023-05-09T21:39:23.172Z,40.03
2023-05-09T21:42:08.905Z,35.57
2023-05-09T21:44:36.341Z,39.10
2023-05-09T21:47:03.512Z,40.17
2023-05-09T21:49:30.784Z,35.27
2023-05-09T21:51:57.950Z,40.33
2023-05-09T21:54:25.042Z,33.30
2023-05-09T21:56:52.159Z,29.47
2023-05-09T21:59:20.831Z,28.63
2023-05-09T22:01:47.969Z,26.70
2023-05-09T22:04:15.370Z,30.60
2023-05-09T22:06:42.841Z,30.37
2023-05-09T22:09:10.280Z,31.83
2023-05-09T22:11:37.720Z,33.00
2023-05-09T22:14:04.892Z,33.37
2023-05-09T22:16:32.017Z,34.80
2023-05-09T22:18:59.187Z,32.30
2023-05-09T22:21:26.332Z,31.40
2023-05-09T22:23:53.439Z,31.03
2023-05-09T22:26:21.348Z,32.43
2023-05-09T22:28:49.064Z,33.53
2023-05-09T22:31:16.240Z,34.97
2023-05-09T22:33:43.388Z,25.87
2023-05-09T22:36:10.560Z,27.70
2023-05-09T22:38:37.669Z,29.90
2023-05-09T22:41:04.767Z,24.53
2023-05-09T22:43:38.773Z,27.90
2023-05-09T22:46:06.960Z,29.27
2023-05-09T22:48:34.161Z,24.23
2023-05-09T22:51:01.263Z,29.03
2023-05-09T22:53:28.391Z,31.87
2023-05-09T22:55:55.678Z,26.73
2023-05-09T22:58:22.834Z,28.47
2023-05-09T23:00:50.025Z,27.27
2023-05-09T23:03:17.489Z,28.73
2023-05-09T23:05:44.694Z,29.90
2023-05-09T23:08:11.790Z,25.83
2023-05-09T23:10:38.929Z,29.00
2023-05-09T23:13:06.145Z,30.97
2023-05-09T23:15:33.367Z,28.63
2023-05-09T23:18:00.537Z,29.57
2023-05-09T23:20:27.697Z,27.97
2023-05-09T23:22:54.787Z,25.30
2023-05-09T23:25:22.005Z,29.60
2023-05-09T23:27:49.109Z,29.50
2023-05-09T23:30:16.596Z,26.50
2023-05-09T23:32:44.271Z,25.67
2023-05-09T23:35:11.361Z,27.53
2023-05-09T23:37:38.451Z,25.47
2023-05-09T23:40:05.929Z,24.87
2023-05-09T23:42:33.372Z,24.50
2023-05-09T23:45:00.461Z,25.53
2023-05-09T23:47:27.595Z,22.90
2023-05-09T23:49:54.677Z,20.53
2023-05-09T23:52:21.779Z,27.30
2023-05-09T23:54:48.905Z,22.30
2023-05-09T23:57:16.088Z,20.70
2023-05-09T23:59:43.246Z,22.13
